createdAt,value
2023-05-01T00:00:45.243Z,98770.25
2023-05-01T00:03:50.965Z,98768.56
2023-05-01T00:07:00.228Z,98769.63
2023-05-01T00:10:06.022Z,98767.94
2023-05-01T00:13:13.014Z,98767.13
2023-05-01T00:16:19.339Z,98771.75
2023-05-01T00:19:25.797Z,98764.97
2023-05-01T00:22:34.157Z,98762.72
2023-05-01T00:25:40.551Z,98760.28
2023-05-01T00:28:46.176Z,98763.19
2023-05-01T00:31:52.787Z,98757.31
2023-05-01T00:34:59.199Z,98759.16
2023-05-01T00:38:08.328Z,98764.53
2023-05-01T00:41:13.811Z,98757.72
2023-05-01T00:44:20.164Z,98759.69
2023-05-01T00:47:25.709Z,98760.00
2023-05-01T00:50:33.783Z,98758.44
2023-05-01T00:53:44.400Z,98760.53
2023-05-01T00:56:51.816Z,98752.03
2023-05-01T00:59:57.524Z,98764.63
2023-05-01T01:03:04.945Z,98762.16
2023-05-01T01:06:21.362Z,98763.13
2023-05-01T01:09:56.160Z,98755.56
2023-05-01T01:13:14.050Z,98760.06
2023-05-01T01:16:35.321Z,98756.09
2023-05-01T01:20:22.444Z,98762.47
2023-05-01T01:24:24.358Z,98761.00
2023-05-01T01:28:22.339Z,98753.44
2023-05-01T01:31:46.043Z,98752.63
2023-05-01T01:34:59.224Z,98747.69
2023-05-01T01:38:16.486Z,98745.84
2023-05-01T01:41:33.587Z,98729.72
2023-05-01T01:44:50.263Z,98749.66
2023-05-01T01:47:59.447Z,98739.31
2023-05-01T01:51:17.739Z,98732.50
2023-05-01T01:54:32.370Z,98703.72
2023-05-01T01:57:41.457Z,98719.97
2023-05-01T02:00:50.051Z,98646.25
2023-05-01T02:03:58.748Z,98731.34
2023-05-01T02:07:11.063Z,98724.53
2023-05-01T02:10:21.181Z,98723.88
2023-05-01T02:13:30.458Z,98718.84
2023-05-01T02:16:41.199Z,98717.34
2023-05-01T02:19:49.845Z,98715.81
2023-05-01T02:23:02.633Z,98705.47
2023-05-01T02:26:18.655Z,98710.03
2023-05-01T02:29:25.781Z,98709.31
2023-05-01T02:32:32.278Z,98705.13
2023-05-01T02:35:44.395Z,98701.97
2023-05-01T02:38:53.176Z,98693.38
2023-05-01T02:42:05.651Z,98694.34
2023-05-01T02:45:20.942Z,98696.28
2023-05-01T02:48:32.788Z,98697.50
2023-05-01T02:51:40.396Z,98695.97
2023-05-01T02:54:51.176Z,98696.16
2023-05-01T02:57:56.848Z,98694.59
2023-05-01T03:01:03.828Z,98692.09
2023-05-01T03:04:09.594Z,98699.19
2023-05-01T03:07:15.982Z,98690.69
2023-05-01T03:10:24.355Z,98693.38
2023-05-01T03:13:30.640Z,98690.09
2023-05-01T03:16:36.189Z,98696.13
2023-05-01T03:19:43.027Z,98688.38
2023-05-01T03:22:48.489Z,98695.44
2023-05-01T03:25:58.200Z,98690.22
2023-05-01T03:29:04.719Z,98693.59
2023-05-01T03:32:11.759Z,98691.06
2023-05-01T03:35:17.605Z,98688.50
2023-05-01T03:38:24.146Z,98692.94
2023-05-01T03:41:55.000Z,98688.50
2023-05-01T03:45:04.026Z,98694.50
2023-05-01T03:48:09.944Z,98689.94
2023-05-01T03:51:17.516Z,98686.44
2023-05-01T03:54:23.984Z,98700.38
2023-05-01T03:57:52.970Z,98688.16
2023-05-01T04:01:01.178Z,98684.50
2023-05-01T04:04:08.944Z,98682.53
2023-05-01T04:07:17.423Z,98674.53
2023-05-01T04:10:26.718Z,98677.00
2023-05-01T04:13:39.508Z,98668.97
2023-05-01T04:16:46.904Z,98669.75
2023-05-01T04:19:52.857Z,98670.38
2023-05-01T04:22:59.499Z,98665.66
2023-05-01T04:26:05.035Z,98667.25
2023-05-01T04:29:14.322Z,98666.28
2023-05-01T04:32:20.216Z,98671.38
2023-05-01T04:35:27.047Z,98670.94
2023-05-01T04:38:33.240Z,98662.69
2023-05-01T04:41:40.796Z,98668.47
2023-05-01T04:44:49.464Z,98672.53
2023-05-01T04:47:56.000Z,98672.16
2023-05-01T04:51:01.603Z,98659.22
2023-05-01T04:54:11.342Z,98664.41
2023-05-01T04:57:18.021Z,98664.81
2023-05-01T05:00:28.297Z,98677.50
2023-05-01T05:03:36.264Z,98676.16
2023-05-01T05:06:42.948Z,98668.72
2023-05-01T05:09:54.613Z,98669.28
2023-05-01T05:13:01.923Z,98625.84
2023-05-01T05:16:11.002Z,98673.31
2023-05-01T05:19:17.668Z,98676.94
2023-05-01T05:22:23.947Z,98655.00
2023-05-01T05:25:50.495Z,98662.06
2023-05-01T05:28:56.681Z,98670.81
2023-05-01T05:32:06.521Z,98669.28
2023-05-01T05:35:12.854Z,98672.00
2023-05-01T05:38:19.198Z,98669.91
2023-05-01T05:41:28.084Z,98658.06
2023-05-01T05:44:39.533Z,98642.16
2023-05-01T05:47:48.105Z,98653.66
2023-05-01T05:50:54.876Z,98664.81
2023-05-01T05:54:00.581Z,98661.63
2023-05-01T05:57:07.382Z,98669.09
2023-05-01T06:00:17.435Z,98667.13
2023-05-01T06:03:31.240Z,98663.34
2023-05-01T06:06:39.765Z,98659.28
2023-05-01T06:09:46.297Z,98652.66
2023-05-01T06:12:56.749Z,98661.38
2023-05-01T06:16:08.660Z,98653.88
2023-05-01T06:19:18.079Z,98658.00
2023-05-01T06:22:26.264Z,98666.16
2023-05-01T06:26:19.028Z,98670.44
2023-05-01T06:29:25.446Z,98664.50
2023-05-01T06:32:31.660Z,98655.56
2023-05-01T06:35:43.604Z,98656.56
2023-05-01T06:38:52.429Z,98652.28
2023-05-01T06:41:59.058Z,98650.22
2023-05-01T06:45:12.363Z,98658.34
2023-05-01T06:48:18.639Z,98660.81
2023-05-01T06:51:27.929Z,98652.91
2023-05-01T06:54:34.505Z,98657.81
2023-05-01T06:57:40.297Z,98645.16
2023-05-01T07:00:46.723Z,98641.94
2023-05-01T07:03:52.324Z,98645.97
2023-05-01T07:07:01.429Z,98652.19
2023-05-01T07:10:07.415Z,98641.91
2023-05-01T07:13:14.111Z,98642.56
2023-05-01T07:16:19.632Z,98640.31
2023-05-01T07:19:26.449Z,98644.59
2023-05-01T07:22:34.954Z,98635.19
2023-05-01T07:25:41.626Z,98643.25
2023-05-01T07:28:47.404Z,98639.69
2023-05-01T07:31:53.825Z,98643.53
2023-05-01T07:34:59.361Z,98649.53
2023-05-01T07:38:09.064Z,98645.22
2023-05-01T07:41:15.179Z,98636.25
2023-05-01T07:44:21.617Z,98635.03
2023-05-01T07:47:27.895Z,98631.41
2023-05-01T07:50:34.458Z,98637.66
2023-05-01T07:53:43.766Z,98628.78
2023-05-01T07:56:50.166Z,98630.63
2023-05-01T07:59:59.124Z,98640.41
2023-05-01T08:03:06.126Z,98625.03
2023-05-01T08:06:12.128Z,98628.41
2023-05-01T08:09:21.539Z,98403.78
2023-05-01T08:12:27.054Z,98624.63
2023-05-01T08:15:33.828Z,98624.41
2023-05-01T08:18:39.378Z,98623.25
2023-05-01T08:21:46.044Z,98634.88
2023-05-01T08:24:55.107Z,98628.25
2023-05-01T08:28:01.925Z,98608.38
2023-05-01T08:31:07.612Z,98619.19
2023-05-01T08:34:14.107Z,98610.72
2023-05-01T08:37:19.701Z,98609.47
2023-05-01T08:40:30.211Z,98610.94
2023-05-01T08:43:36.439Z,98604.38
2023-05-01T08:46:51.748Z,98556.56
2023-05-01T08:50:00.356Z,98607.97
2023-05-01T08:53:08.602Z,98614.69
2023-05-01T08:56:18.376Z,98605.59
2023-05-01T08:59:28.956Z,98599.25
2023-05-01T09:02:39.494Z,98601.59
2023-05-01T09:05:47.293Z,98597.53
2023-05-01T09:08:52.818Z,98597.13
2023-05-01T09:12:12.014Z,98596.66
2023-05-01T09:15:18.606Z,98593.78
2023-05-01T09:18:25.693Z,98592.84
2023-05-01T09:21:32.399Z,98560.94
2023-05-01T09:24:39.139Z,98588.78
2023-05-01T09:27:48.971Z,98585.81
2023-05-01T09:30:55.533Z,98565.72
2023-05-01T09:34:03.645Z,98570.91
2023-05-01T09:37:10.418Z,98577.56
2023-05-01T09:40:18.089Z,98564.41
2023-05-01T09:43:34.168Z,98556.97
2023-05-01T09:46:46.253Z,98567.97
2023-05-01T09:49:52.750Z,98570.69
2023-05-01T09:52:58.495Z,98559.91
2023-05-01T09:56:04.902Z,98557.28
2023-05-01T09:59:23.337Z,98560.22
2023-05-01T10:02:33.059Z,98555.19
2023-05-01T10:05:47.203Z,98552.06
2023-05-01T10:08:54.783Z,98548.09
2023-05-01T10:12:00.848Z,98561.00
2023-05-01T10:15:24.556Z,98546.81
2023-05-01T10:18:33.701Z,98529.25
2023-05-01T10:21:40.088Z,98534.91
2023-05-01T10:24:48.299Z,98529.00
2023-05-01T10:27:55.775Z,98533.59
2023-05-01T10:31:06.317Z,98535.28
2023-05-01T10:34:19.722Z,98531.19
2023-05-01T10:37:37.644Z,98522.06
2023-05-01T10:40:54.364Z,98520.16
2023-05-01T10:44:25.244Z,98510.16
2023-05-01T10:47:52.739Z,98511.34
2023-05-01T10:51:13.288Z,98508.34
2023-05-01T10:54:29.201Z,98504.72
2023-05-01T10:57:47.930Z,98504.97
2023-05-01T11:01:34.589Z,98501.19
2023-05-01T11:04:56.548Z,98503.94
2023-05-01T11:08:33.535Z,98493.81
2023-05-01T11:11:52.287Z,98462.25
2023-05-01T11:15:10.080Z,98477.84
2023-05-01T11:18:15.718Z,98482.28
2023-05-01T11:21:34.474Z,98477.09
2023-05-01T11:24:40.350Z,98470.31
2023-05-01T11:27:52.688Z,98468.81
2023-05-01T11:30:59.394Z,98462.41
2023-05-01T11:34:07.215Z,98452.63
2023-05-01T11:37:15.543Z,98447.78
2023-05-01T11:40:27.524Z,98447.03
2023-05-01T11:43:34.101Z,98448.28
2023-05-01T11:46:40.611Z,98439.09
2023-05-01T11:49:46.563Z,98428.53
2023-05-01T11:52:55.984Z,98431.38
2023-05-01T11:56:08.698Z,98426.25
2023-05-01T11:59:20.542Z,98428.97
2023-05-01T12:02:26.646Z,98421.59
2023-05-01T12:05:37.453Z,98419.09
2023-05-01T12:08:53.960Z,98418.16
2023-05-01T12:12:03.632Z,98412.88
2023-05-01T12:15:10.981Z,98406.19
2023-05-01T12:18:21.800Z,98415.84
2023-05-01T12:21:28.418Z,98403.41
2023-05-01T12:24:37.988Z,98392.25
2023-05-01T12:27:47.055Z,98384.13
2023-05-01T12:30:56.484Z,98355.84
2023-05-01T12:34:05.062Z,98378.53
2023-05-01T12:37:12.727Z,98361.00
2023-05-01T12:40:23.176Z,98374.91
2023-05-01T12:43:35.609Z,98382.06
2023-05-01T12:46:41.957Z,98371.13
2023-05-01T12:49:48.791Z,98369.44
2023-05-01T12:52:55.546Z,98362.31
2023-05-01T12:56:04.703Z,98351.16
2023-05-01T12:59:10.254Z,98346.38
2023-05-01T13:02:20.364Z,98316.16
2023-05-01T13:05:26.049Z,98338.81
2023-05-01T13:08:36.454Z,98336.28
2023-05-01T13:11:44.867Z,98335.41
2023-05-01T13:14:52.239Z,98334.69
2023-05-01T13:18:07.434Z,98318.28
2023-05-01T13:21:16.899Z,98318.78
2023-05-01T13:24:23.622Z,98324.22
2023-05-01T13:27:33.458Z,98320.59
2023-05-01T13:30:39.824Z,98302.91
2023-05-01T13:33:46.844Z,98314.41
2023-05-01T13:36:52.547Z,98313.94
2023-05-01T13:40:01.488Z,98306.94
2023-05-01T13:43:18.863Z,98285.63
2023-05-01T13:46:27.287Z,98302.09
2023-05-01T13:49:32.929Z,98278.97
2023-05-01T13:52:47.156Z,98279.91
2023-05-01T13:55:52.638Z,98275.94
2023-05-01T13:59:03.157Z,98281.75
2023-05-01T14:02:23.670Z,98279.84
2023-05-01T14:05:31.636Z,98277.00
2023-05-01T14:08:37.236Z,98278.59
2023-05-01T14:11:49.709Z,98264.13
2023-05-01T14:14:58.323Z,98262.13
2023-05-01T14:18:08.753Z,98186.97
2023-05-01T14:21:14.492Z,98263.41
2023-05-01T14:24:21.183Z,98262.88
2023-05-01T14:27:26.655Z,98260.28
2023-05-01T14:30:40.159Z,98248.69
2023-05-01T14:33:47.586Z,98249.06
2023-05-01T14:36:54.039Z,98249.31
2023-05-01T14:39:59.983Z,98244.59
2023-05-01T14:43:06.632Z,98227.34
2023-05-01T14:46:16.714Z,98246.31
2023-05-01T14:49:26.157Z,98162.09
2023-05-01T14:52:32.023Z,98236.06
2023-05-01T14:55:39.769Z,98238.13
2023-05-01T14:58:45.235Z,98238.81
2023-05-01T15:01:54.389Z,98232.81
2023-05-01T15:05:00.214Z,98233.16
2023-05-01T15:08:08.517Z,98230.09
2023-05-01T15:11:18.838Z,98229.63
2023-05-01T15:14:25.186Z,98223.59
2023-05-01T15:17:33.674Z,98220.94
2023-05-01T15:20:40.499Z,98215.47
2023-05-01T15:23:46.513Z,98213.63
2023-05-01T15:26:53.153Z,98214.81
2023-05-01T15:29:59.061Z,98210.94
2023-05-01T15:33:08.231Z,98215.63
2023-05-01T15:36:13.714Z,98208.41
2023-05-01T15:39:20.474Z,98201.06
2023-05-01T15:42:25.958Z,98191.78
2023-05-01T15:45:32.474Z,98191.16
2023-05-01T15:48:41.426Z,98194.78
2023-05-01T15:51:47.884Z,98187.41
2023-05-01T15:54:53.442Z,98183.28
2023-05-01T15:57:59.849Z,98190.16
2023-05-01T16:01:05.408Z,98184.41
2023-05-01T16:04:14.607Z,98182.69
2023-05-01T16:07:21.801Z,98181.22
2023-05-01T16:10:28.243Z,98175.06
2023-05-01T16:13:33.853Z,98181.78
2023-05-01T16:16:45.237Z,98174.72
2023-05-01T16:19:55.396Z,98182.22
2023-05-01T16:23:02.559Z,98189.69
2023-05-01T16:26:08.834Z,98187.19
2023-05-01T16:29:15.533Z,98174.53
2023-05-01T16:32:21.057Z,98183.88
2023-05-01T16:35:32.126Z,98173.34
2023-05-01T16:38:37.703Z,98171.63
2023-05-01T16:41:48.861Z,98180.63
2023-05-01T16:44:54.699Z,98183.34
2023-05-01T16:48:01.912Z,98171.41
2023-05-01T16:51:12.457Z,98174.00
2023-05-01T16:54:19.113Z,98172.22
2023-05-01T16:57:24.593Z,98169.88
2023-05-01T17:00:31.748Z,98157.44
2023-05-01T17:03:38.110Z,98168.09
2023-05-01T17:06:47.288Z,98164.84
2023-05-01T17:09:52.776Z,98163.63
2023-05-01T17:12:59.387Z,98169.50
2023-05-01T17:16:05.246Z,98174.94
2023-05-01T17:19:12.325Z,98179.44
2023-05-01T17:22:20.710Z,98163.50
2023-05-01T17:25:27.017Z,98170.69
2023-05-01T17:28:32.857Z,98162.16
2023-05-01T17:31:39.586Z,98166.22
2023-05-01T17:34:45.314Z,98158.28
2023-05-01T17:37:54.647Z,98165.13
2023-05-01T17:41:00.245Z,98165.97
2023-05-01T17:44:07.185Z,98164.19
2023-05-01T17:47:12.980Z,98162.31
2023-05-01T17:50:20.113Z,98169.47
2023-05-01T17:53:28.537Z,98168.09
2023-05-01T17:56:35.124Z,98177.47
2023-05-01T17:59:40.765Z,98176.16
2023-05-01T18:02:47.960Z,98171.56
2023-05-01T18:05:54.069Z,98162.50
2023-05-01T18:09:03.928Z,98165.66
2023-05-01T18:12:10.615Z,98173.16
2023-05-01T18:15:22.536Z,98173.34
2023-05-01T18:18:28.844Z,98178.69
2023-05-01T18:21:35.514Z,98166.41
2023-05-01T18:24:45.253Z,98172.63
2023-05-01T18:27:53.131Z,98180.72
2023-05-01T18:30:59.030Z,98174.88
2023-05-01T18:34:06.850Z,98179.66
2023-05-01T18:37:12.961Z,98168.50
2023-05-01T18:40:23.015Z,98171.31
2023-05-01T18:43:29.047Z,98180.56
2023-05-01T18:46:35.756Z,98169.34
2023-05-01T18:49:41.945Z,98175.63
2023-05-01T18:52:51.090Z,98171.81
2023-05-01T18:55:59.779Z,98176.28
2023-05-01T18:59:09.463Z,98175.44
2023-05-01T19:02:16.777Z,98185.03
2023-05-01T19:05:25.980Z,98178.75
2023-05-01T19:08:33.310Z,98184.00
2023-05-01T19:11:43.262Z,98178.41
2023-05-01T19:14:49.430Z,98175.34
2023-05-01T19:17:56.558Z,98169.56
2023-05-01T19:21:03.198Z,98169.41
2023-05-01T19:24:11.842Z,98172.00
2023-05-01T19:27:21.300Z,98169.31
2023-05-01T19:30:28.119Z,98170.13
2023-05-01T19:33:34.328Z,98169.22
2023-05-01T19:36:41.335Z,98170.00
2023-05-01T19:39:47.228Z,98176.78
2023-05-01T19:42:56.776Z,98171.31
2023-05-01T19:46:03.062Z,98167.50
2023-05-01T19:49:10.674Z,98167.31
2023-05-01T19:52:16.501Z,98160.09
2023-05-01T19:55:23.745Z,98168.56
2023-05-01T19:58:33.098Z,98171.72
2023-05-01T20:01:40.198Z,98172.34
2023-05-01T20:04:46.925Z,98167.69
2023-05-01T20:07:53.793Z,98159.31
2023-05-01T20:11:01.262Z,98167.47
2023-05-01T20:14:13.538Z,98155.75
2023-05-01T20:17:19.635Z,98157.06
2023-05-01T20:20:26.688Z,98161.75
2023-05-01T20:23:34.795Z,98158.66
2023-05-01T20:26:42.952Z,98162.53
2023-05-01T20:29:51.641Z,98166.38
2023-05-01T20:32:58.677Z,98156.19
2023-05-01T20:36:15.855Z,98166.16
2023-05-01T20:39:22.559Z,98171.72
2023-05-01T20:42:28.405Z,98175.44
2023-05-01T20:45:39.745Z,98174.13
2023-05-01T20:48:46.440Z,98184.09
2023-05-01T20:51:53.324Z,98180.34
2023-05-01T20:55:00.356Z,98192.16
2023-05-01T20:58:07.641Z,98185.38
2023-05-01T21:01:16.148Z,98192.59
2023-05-01T21:04:22.883Z,98199.06
2023-05-01T21:07:28.854Z,98201.00
2023-05-01T21:10:35.447Z,98196.69
2023-05-01T21:13:41.125Z,98200.16
2023-05-01T21:16:50.529Z,98197.66
2023-05-01T21:19:57.278Z,98198.75
2023-05-01T21:23:05.194Z,98201.50
2023-05-01T21:26:10.862Z,98205.09
2023-05-01T21:29:17.714Z,98206.19
2023-05-01T21:32:33.327Z,98202.84
2023-05-01T21:35:39.838Z,98209.31
2023-05-01T21:38:46.291Z,98209.44
2023-05-01T21:41:53.035Z,98217.59
2023-05-01T21:44:58.600Z,98215.19
2023-05-01T21:48:08.365Z,98213.75
2023-05-01T21:51:13.847Z,98217.34
2023-05-01T21:54:21.745Z,98216.16
2023-05-01T21:57:27.725Z,98218.06
2023-05-01T22:00:35.075Z,98220.94
2023-05-01T22:03:46.583Z,98216.13
2023-05-01T22:06:53.138Z,98221.88
2023-05-01T22:09:59.441Z,98221.38
2023-05-01T22:13:06.633Z,98219.09
2023-05-01T22:16:13.165Z,98213.22
2023-05-01T22:19:22.673Z,98225.69
2023-05-01T22:22:28.924Z,98214.53
2023-05-01T22:25:35.209Z,98218.25
2023-05-01T22:28:40.746Z,98218.25
2023-05-01T22:31:47.120Z,98209.09
2023-05-01T22:34:55.455Z,98223.03
2023-05-01T22:38:01.885Z,98222.28
2023-05-01T22:41:07.399Z,98220.50
2023-05-01T22:44:13.900Z,98230.19
2023-05-01T22:47:19.336Z,98231.91
2023-05-01T22:50:28.498Z,98221.78
2023-05-01T22:53:34.216Z,98222.78
2023-05-01T22:56:40.919Z,98218.44
2023-05-01T22:59:46.676Z,98220.31
2023-05-01T23:02:53.316Z,98218.63
2023-05-01T23:06:01.739Z,98229.41
2023-05-01T23:09:08.753Z,98221.00
2023-05-01T23:12:23.070Z,98227.34
2023-05-01T23:15:29.666Z,98218.84
2023-05-01T23:18:36.820Z,98197.53
2023-05-01T23:21:46.209Z,98216.88
2023-05-01T23:24:52.345Z,98217.84
2023-05-01T23:27:59.695Z,98209.19
2023-05-01T23:31:07.313Z,98208.44
2023-05-01T23:34:20.690Z,98208.69
2023-05-01T23:37:29.020Z,98204.69
2023-05-01T23:40:37.193Z,98204.53
2023-05-01T23:43:44.743Z,98207.91
2023-05-01T23:46:51.319Z,98202.03
2023-05-01T23:49:57.568Z,98202.25
2023-05-01T23:53:10.284Z,98201.63
2023-05-01T23:56:16.459Z,98202.69
2023-05-01T23:59:22.753Z,98184.78
